PWSweather.com
Personal Weather Stations
Station Observations
WD4JKH
Forsyth, GA 31029

Forsyth, GA 31029

Lat: 33.033225, Lon: -83.927995

Elevation: 709

Station Type: Davis Vantage VUE

High Low Average
Temperature 92.2°F33.4°C 81.2°F27.3°C 86.8°F30.4°C
Dew Point 75.7°F24.3°C 68.8°F20.4°C 72.9°F22.7°C
Winds 4.8 mph 7.7 kmh Calm Calm 2.0 mph W3.2 kmh W
Wind Gusts 10.0 mph16.1 kmh 3.0 mph4.8 kmh 7.0 mph11.3 kmh
Humidity 77% 47% 64%
Pressure 29.97 in1014.9 mb 29.89 in1012.2 mb -
Precipitation 0.00 in0.0 mm - -
Hour Temp Dew Point Humidity Winds Wind Gusts Pressure Precip Precip Rate Daily Precip Total
01:17 PM 88.6°F31.4°C 77.0°F25.0°C 68% 2.3 mph W3.7 kmh W 6.0 mph9.7 kmh 29.97 in1014.9 mb 0.00 in0.0 mm 0.00 in0.0 mm 0.00 in0.0 mm
01:22 PM 88.5°F31.4°C 76.0°F24.4°C 66% 2.9 mph NNW4.7 kmh NNW 6.0 mph9.7 kmh 29.96 in1014.6 mb 0.00 in0.0 mm 0.00 in0.0 mm 0.00 in0.0 mm
01:27 PM 88.4°F31.3°C 75.4°F24.1°C 65% 1.7 mph W2.7 kmh W 6.0 mph9.7 kmh 29.96 in1014.6 mb 0.00 in0.0 mm 0.00 in0.0 mm 0.00 in0.0 mm
01:33 PM 88.3°F31.3°C 75.5°F24.2°C 66% 2.0 mph NW3.2 kmh NW 6.0 mph9.7 kmh 29.96 in1014.6 mb 0.00 in0.0 mm 0.00 in0.0 mm 0.00 in0.0 mm
01:38 PM 88.2°F31.2°C 75.7°F24.3°C 66% 3.1 mph WNW5.0 kmh WNW 6.0 mph9.7 kmh 29.95 in1014.2 mb 0.00 in0.0 mm 0.00 in0.0 mm 0.00 in0.0 mm
01:43 PM 88.3°F31.3°C 74.4°F23.6°C 63% 3.6 mph NW5.8 kmh NW 8.0 mph12.9 kmh 29.95 in1014.2 mb 0.00 in0.0 mm 0.00 in0.0 mm 0.00 in0.0 mm
01:48 PM 88.4°F31.3°C 74.0°F23.3°C 62% 2.8 mph WNW4.5 kmh WNW 8.0 mph12.9 kmh 29.95 in1014.2 mb 0.00 in0.0 mm 0.00 in0.0 mm 0.00 in0.0 mm
01:53 PM 88.3°F31.3°C 74.9°F23.8°C 64% 2.5 mph NW4.0 kmh NW 8.0 mph12.9 kmh 29.95 in1014.2 mb 0.00 in0.0 mm 0.00 in0.0 mm 0.00 in0.0 mm
01:58 PM 88.2°F31.2°C 74.5°F23.6°C 64% 1.9 mph W3.1 kmh W 8.0 mph12.9 kmh 29.95 in1014.2 mb 0.00 in0.0 mm 0.00 in0.0 mm 0.00 in0.0 mm
02:03 PM 88.3°F31.3°C 74.9°F23.8°C 64% 2.0 mph NW3.2 kmh NW 8.0 mph12.9 kmh 29.95 in1014.2 mb 0.00 in0.0 mm 0.00 in0.0 mm 0.00 in0.0 mm
02:08 PM 88.4°F31.3°C 74.7°F23.7°C 64% 3.6 mph WNW5.8 kmh WNW 7.0 mph11.3 kmh 29.94 in1013.9 mb 0.00 in0.0 mm 0.00 in0.0 mm 0.00 in0.0 mm
02:13 PM 88.6°F31.4°C 74.2°F23.4°C 62% 3.7 mph W6.0 kmh W 7.0 mph11.3 kmh 29.94 in1013.9 mb 0.00 in0.0 mm 0.00 in0.0 mm 0.00 in0.0 mm
02:18 PM 88.9°F31.6°C 74.0°F23.3°C 61% 2.9 mph W4.7 kmh W 7.0 mph11.3 kmh 29.94 in1013.9 mb 0.00 in0.0 mm 0.00 in0.0 mm 0.00 in0.0 mm
02:23 PM 89.7°F32.1°C 74.3°F23.5°C 60% 1.7 mph SSE2.7 kmh SSE 7.0 mph11.3 kmh 29.93 in1013.5 mb 0.00 in0.0 mm 0.00 in0.0 mm 0.00 in0.0 mm
02:28 PM 90.0°F32.2°C 72.7°F22.6°C 57% 4.3 mph NW6.9 kmh NW 10.0 mph16.1 kmh 29.93 in1013.5 mb 0.00 in0.0 mm 0.00 in0.0 mm 0.00 in0.0 mm
02:33 PM 89.9°F32.2°C 72.4°F22.4°C 56% 4.2 mph NW6.8 kmh NW 10.0 mph16.1 kmh 29.93 in1013.5 mb 0.00 in0.0 mm 0.00 in0.0 mm 0.00 in0.0 mm
02:38 PM 90.4°F32.4°C 72.8°F22.7°C 56% 1.9 mph NW3.1 kmh NW 10.0 mph16.1 kmh 29.93 in1013.5 mb 0.00 in0.0 mm 0.00 in0.0 mm 0.00 in0.0 mm
02:43 PM 90.6°F32.6°C 70.2°F21.2°C 51% 3.8 mph W6.1 kmh W 10.0 mph16.1 kmh 29.92 in1013.2 mb 0.00 in0.0 mm 0.00 in0.0 mm 0.00 in0.0 mm
02:48 PM 90.4°F32.4°C 71.2°F21.8°C 53% 3.0 mph WNW4.8 kmh WNW 8.0 mph12.9 kmh 29.92 in1013.2 mb 0.00 in0.0 mm 0.00 in0.0 mm 0.00 in0.0 mm
02:53 PM 90.3°F32.4°C 71.6°F22.0°C 54% 4.2 mph W6.8 kmh W 8.0 mph12.9 kmh 29.92 in1013.2 mb 0.00 in0.0 mm 0.00 in0.0 mm 0.00 in0.0 mm
02:58 PM 90.8°F32.7°C 71.9°F22.2°C 54% 1.0 mph NNW1.6 kmh NNW 8.0 mph12.9 kmh 29.91 in1012.9 mb 0.00 in0.0 mm 0.00 in0.0 mm 0.00 in0.0 mm
03:03 PM 91.1°F32.8°C 73.5°F23.1°C 56% 4.3 mph NW6.9 kmh NW 7.0 mph11.3 kmh 29.91 in1012.9 mb 0.00 in0.0 mm 0.00 in0.0 mm 0.00 in0.0 mm
03:08 PM 90.9°F32.7°C 73.3°F22.9°C 56% 3.3 mph WNW5.3 kmh WNW 7.0 mph11.3 kmh 29.91 in1012.9 mb 0.00 in0.0 mm 0.00 in0.0 mm 0.00 in0.0 mm
03:13 PM 90.5°F32.5°C 72.4°F22.4°C 55% 3.3 mph WNW5.3 kmh WNW 9.0 mph14.5 kmh 29.90 in1012.5 mb 0.00 in0.0 mm 0.00 in0.0 mm 0.00 in0.0 mm
03:18 PM 90.4°F32.4°C 72.3°F22.4°C 55% 2.1 mph WNW3.4 kmh WNW 9.0 mph14.5 kmh 29.90 in1012.5 mb 0.00 in0.0 mm 0.00 in0.0 mm 0.00 in0.0 mm
03:23 PM 90.7°F32.6°C 73.1°F22.8°C 56% 3.2 mph NNW5.1 kmh NNW 9.0 mph14.5 kmh 29.90 in1012.5 mb 0.00 in0.0 mm 0.00 in0.0 mm 0.00 in0.0 mm
03:28 PM 90.9°F32.7°C 72.8°F22.7°C 55% 3.2 mph NW5.1 kmh NW 8.0 mph12.9 kmh 29.90 in1012.5 mb 0.00 in0.0 mm 0.00 in0.0 mm 0.00 in0.0 mm
03:33 PM 91.0°F32.8°C 72.9°F22.7°C 55% 1.8 mph N2.9 kmh N 8.0 mph12.9 kmh 29.90 in1012.5 mb 0.00 in0.0 mm 0.00 in0.0 mm 0.00 in0.0 mm
03:38 PM 91.2°F32.9°C 71.7°F22.1°C 53% Calm Calm 8.0 mph12.9 kmh 29.90 in1012.5 mb 0.00 in0.0 mm 0.00 in0.0 mm 0.00 in0.0 mm
03:43 PM 91.3°F32.9°C 71.4°F21.9°C 52% 4.8 mph WNW7.7 kmh WNW 8.0 mph12.9 kmh 29.90 in1012.5 mb 0.00 in0.0 mm 0.00 in0.0 mm 0.00 in0.0 mm
03:48 PM 91.0°F32.8°C 70.9°F21.6°C 52% 3.1 mph W5.0 kmh W 8.0 mph12.9 kmh 29.90 in1012.5 mb 0.00 in0.0 mm 0.00 in0.0 mm 0.00 in0.0 mm
03:53 PM 91.1°F32.8°C 70.1°F21.2°C 50% 4.4 mph NNW7.1 kmh NNW 8.0 mph12.9 kmh 29.90 in1012.5 mb 0.00 in0.0 mm 0.00 in0.0 mm 0.00 in0.0 mm
03:58 PM 91.3°F32.9°C 70.8°F21.6°C 51% 1.4 mph W2.3 kmh W 8.0 mph12.9 kmh 29.91 in1012.9 mb 0.00 in0.0 mm 0.00 in0.0 mm 0.00 in0.0 mm
04:03 PM 91.6°F33.1°C 70.5°F21.4°C 50% 2.2 mph W3.5 kmh W 8.0 mph12.9 kmh 29.90 in1012.5 mb 0.00 in0.0 mm 0.00 in0.0 mm 0.00 in0.0 mm
04:08 PM 91.8°F33.2°C 69.5°F20.8°C 48% 1.9 mph NNE3.1 kmh NNE 7.0 mph11.3 kmh 29.90 in1012.5 mb 0.00 in0.0 mm 0.00 in0.0 mm 0.00 in0.0 mm
04:13 PM 91.8°F33.2°C 68.8°F20.4°C 47% 2.5 mph W4.0 kmh W 7.0 mph11.3 kmh 29.90 in1012.5 mb 0.00 in0.0 mm 0.00 in0.0 mm 0.00 in0.0 mm
04:18 PM 91.8°F33.2°C 70.1°F21.2°C 49% 4.2 mph NW6.8 kmh NW 7.0 mph11.3 kmh 29.91 in1012.9 mb 0.00 in0.0 mm 0.00 in0.0 mm 0.00 in0.0 mm
04:23 PM 91.5°F33.1°C 71.0°F21.7°C 51% 3.4 mph NNW5.5 kmh NNW 6.0 mph9.7 kmh 29.90 in1012.5 mb 0.00 in0.0 mm 0.00 in0.0 mm 0.00 in0.0 mm
04:28 PM 91.6°F33.1°C 70.5°F21.4°C 50% 3.7 mph WNW6.0 kmh WNW 8.0 mph12.9 kmh 29.90 in1012.5 mb 0.00 in0.0 mm 0.00 in0.0 mm 0.00 in0.0 mm
04:33 PM 91.3°F32.9°C 70.6°F21.4°C 51% 4.4 mph WNW7.1 kmh WNW 8.0 mph12.9 kmh 29.90 in1012.5 mb 0.00 in0.0 mm 0.00 in0.0 mm 0.00 in0.0 mm
04:38 PM 91.6°F33.1°C 71.1°F21.7°C 51% Calm Calm 8.0 mph12.9 kmh 29.90 in1012.5 mb 0.00 in0.0 mm 0.00 in0.0 mm 0.00 in0.0 mm
04:43 PM 92.2°F33.4°C 71.7°F22.1°C 51% 2.7 mph NW4.3 kmh NW 8.0 mph12.9 kmh 29.90 in1012.5 mb 0.00 in0.0 mm 0.00 in0.0 mm 0.00 in0.0 mm
04:48 PM 92.1°F33.4°C 71.6°F22.0°C 51% 2.2 mph NW3.5 kmh NW 8.0 mph12.9 kmh 29.90 in1012.5 mb 0.00 in0.0 mm 0.00 in0.0 mm 0.00 in0.0 mm
04:53 PM 91.9°F33.3°C 72.0°F22.2°C 52% 3.7 mph NW6.0 kmh NW 7.0 mph11.3 kmh 29.89 in1012.2 mb 0.00 in0.0 mm 0.00 in0.0 mm 0.00 in0.0 mm
04:58 PM 91.8°F33.2°C 71.7°F22.1°C 52% 2.5 mph NW4.0 kmh NW 7.0 mph11.3 kmh 29.89 in1012.2 mb 0.00 in0.0 mm 0.00 in0.0 mm 0.00 in0.0 mm
05:03 PM 91.8°F33.2°C 71.9°F22.2°C 52% 1.8 mph WSW2.9 kmh WSW 7.0 mph11.3 kmh 29.89 in1012.2 mb 0.00 in0.0 mm 0.00 in0.0 mm 0.00 in0.0 mm
05:08 PM 91.6°F33.1°C 72.3°F22.4°C 53% 2.2 mph WNW3.5 kmh WNW 7.0 mph11.3 kmh 29.89 in1012.2 mb 0.00 in0.0 mm 0.00 in0.0 mm 0.00 in0.0 mm
05:13 PM 91.1°F32.8°C 71.8°F22.1°C 53% 2.3 mph W3.7 kmh W 6.0 mph9.7 kmh 29.89 in1012.2 mb 0.00 in0.0 mm 0.00 in0.0 mm 0.00 in0.0 mm
05:18 PM 90.6°F32.6°C 71.9°F22.2°C 54% 2.3 mph W3.7 kmh W 6.0 mph9.7 kmh 29.89 in1012.2 mb 0.00 in0.0 mm 0.00 in0.0 mm 0.00 in0.0 mm
05:23 PM 90.5°F32.5°C 72.1°F22.3°C 55% 2.5 mph WNW4.0 kmh WNW 6.0 mph9.7 kmh 29.89 in1012.2 mb 0.00 in0.0 mm 0.00 in0.0 mm 0.00 in0.0 mm
05:28 PM 90.4°F32.4°C 72.3°F22.4°C 55% 2.5 mph WNW4.0 kmh WNW 6.0 mph9.7 kmh 29.89 in1012.2 mb 0.00 in0.0 mm 0.00 in0.0 mm 0.00 in0.0 mm
05:33 PM 90.0°F32.2°C 71.9°F22.2°C 55% 3.1 mph W5.0 kmh W 6.0 mph9.7 kmh 29.89 in1012.2 mb 0.00 in0.0 mm 0.00 in0.0 mm 0.00 in0.0 mm
05:38 PM 89.7°F32.1°C 72.7°F22.6°C 57% 2.1 mph W3.4 kmh W 8.0 mph12.9 kmh 29.89 in1012.2 mb 0.00 in0.0 mm 0.00 in0.0 mm 0.00 in0.0 mm
05:43 PM 89.5°F31.9°C 71.5°F21.9°C 55% 2.7 mph WNW4.3 kmh WNW 8.0 mph12.9 kmh 29.89 in1012.2 mb 0.00 in0.0 mm 0.00 in0.0 mm 0.00 in0.0 mm
05:48 PM 89.3°F31.8°C 71.5°F21.9°C 56% 3.8 mph WNW6.1 kmh WNW 8.0 mph12.9 kmh 29.89 in1012.2 mb 0.00 in0.0 mm 0.00 in0.0 mm 0.00 in0.0 mm
05:53 PM 89.1°F31.7°C 71.6°F22.0°C 56% 3.0 mph NW4.8 kmh NW 8.0 mph12.9 kmh 29.89 in1012.2 mb 0.00 in0.0 mm 0.00 in0.0 mm 0.00 in0.0 mm
05:58 PM 89.0°F31.7°C 71.5°F21.9°C 56% 2.5 mph WNW4.0 kmh WNW 8.0 mph12.9 kmh 29.89 in1012.2 mb 0.00 in0.0 mm 0.00 in0.0 mm 0.00 in0.0 mm
06:03 PM 88.8°F31.6°C 71.9°F22.2°C 57% 2.7 mph WNW4.3 kmh WNW 7.0 mph11.3 kmh 29.89 in1012.2 mb 0.00 in0.0 mm 0.00 in0.0 mm 0.00 in0.0 mm
06:08 PM 88.6°F31.4°C 71.2°F21.8°C 56% 2.2 mph WNW3.5 kmh WNW 6.0 mph9.7 kmh 29.89 in1012.2 mb 0.00 in0.0 mm 0.00 in0.0 mm 0.00 in0.0 mm
06:13 PM 88.6°F31.4°C 70.6°F21.4°C 55% 2.9 mph W4.7 kmh W 6.0 mph9.7 kmh 29.89 in1012.2 mb 0.00 in0.0 mm 0.00 in0.0 mm 0.00 in0.0 mm
06:18 PM 88.5°F31.4°C 71.1°F21.7°C 56% 1.0 mph WNW1.6 kmh WNW 6.0 mph9.7 kmh 29.89 in1012.2 mb 0.00 in0.0 mm 0.00 in0.0 mm 0.00 in0.0 mm
06:23 PM 88.4°F31.3°C 71.0°F21.7°C 56% 1.9 mph NW3.1 kmh NW 5.0 mph8.0 kmh 29.89 in1012.2 mb 0.00 in0.0 mm 0.00 in0.0 mm 0.00 in0.0 mm
06:28 PM 88.2°F31.2°C 70.5°F21.4°C 56% 1.6 mph W2.6 kmh W 6.0 mph9.7 kmh 29.89 in1012.2 mb 0.00 in0.0 mm 0.00 in0.0 mm 0.00 in0.0 mm
06:32 PM 88.0°F31.1°C 71.1°F21.7°C 57% 1.2 mph NW1.9 kmh NW 6.0 mph9.7 kmh 29.90 in1012.5 mb 0.00 in0.0 mm 0.00 in0.0 mm 0.00 in0.0 mm
06:37 PM 87.9°F31.1°C 71.5°F21.9°C 58% 2.1 mph W3.4 kmh W 6.0 mph9.7 kmh 29.90 in1012.5 mb 0.00 in0.0 mm 0.00 in0.0 mm 0.00 in0.0 mm
06:42 PM 87.7°F30.9°C 71.1°F21.7°C 58% 2.8 mph W4.5 kmh W 6.0 mph9.7 kmh 29.90 in1012.5 mb 0.00 in0.0 mm 0.00 in0.0 mm 0.00 in0.0 mm
06:47 PM 87.4°F30.8°C 71.6°F22.0°C 59% 1.8 mph W2.9 kmh W 5.0 mph8.0 kmh 29.91 in1012.9 mb 0.00 in0.0 mm 0.00 in0.0 mm 0.00 in0.0 mm
06:52 PM 87.3°F30.7°C 72.0°F22.2°C 60% 1.8 mph WSW2.9 kmh WSW 5.0 mph8.0 kmh 29.91 in1012.9 mb 0.00 in0.0 mm 0.00 in0.0 mm 0.00 in0.0 mm
06:57 PM 87.1°F30.6°C 72.3°F22.4°C 61% 1.3 mph WSW2.1 kmh WSW 5.0 mph8.0 kmh 29.91 in1012.9 mb 0.00 in0.0 mm 0.00 in0.0 mm 0.00 in0.0 mm
07:02 PM 86.8°F30.4°C 72.5°F22.5°C 62% Calm Calm 5.0 mph8.0 kmh 29.91 in1012.9 mb 0.00 in0.0 mm 0.00 in0.0 mm 0.00 in0.0 mm
07:07 PM 86.6°F30.3°C 72.8°F22.7°C 63% 1.4 mph WSW2.3 kmh WSW 5.0 mph8.0 kmh 29.91 in1012.9 mb 0.00 in0.0 mm 0.00 in0.0 mm 0.00 in0.0 mm
07:12 PM 86.4°F30.2°C 73.1°F22.8°C 64% 1.0 mph W1.6 kmh W 5.0 mph8.0 kmh 29.91 in1012.9 mb 0.00 in0.0 mm 0.00 in0.0 mm 0.00 in0.0 mm
07:17 PM 86.2°F30.1°C 72.9°F22.7°C 64% 1.5 mph WSW2.4 kmh WSW 3.0 mph4.8 kmh 29.91 in1012.9 mb 0.00 in0.0 mm 0.00 in0.0 mm 0.00 in0.0 mm
07:22 PM 86.0°F30.0°C 72.9°F22.7°C 65% 1.1 mph W1.8 kmh W 3.0 mph4.8 kmh 29.92 in1013.2 mb 0.00 in0.0 mm 0.00 in0.0 mm 0.00 in0.0 mm
07:27 PM 85.9°F29.9°C 73.0°F22.8°C 65% 1.9 mph WSW3.1 kmh WSW 4.0 mph6.4 kmh 29.91 in1012.9 mb 0.00 in0.0 mm 0.00 in0.0 mm 0.00 in0.0 mm
07:32 PM 85.7°F29.8°C 73.3°F22.9°C 66% 1.4 mph WSW2.3 kmh WSW 4.0 mph6.4 kmh 29.92 in1013.2 mb 0.00 in0.0 mm 0.00 in0.0 mm 0.00 in0.0 mm
07:37 PM 85.6°F29.8°C 73.2°F22.9°C 66% 1.3 mph W2.1 kmh W 4.0 mph6.4 kmh 29.92 in1013.2 mb 0.00 in0.0 mm 0.00 in0.0 mm 0.00 in0.0 mm
07:42 PM 85.4°F29.7°C 73.2°F22.9°C 67% 1.3 mph WSW2.1 kmh WSW 4.0 mph6.4 kmh 29.92 in1013.2 mb 0.00 in0.0 mm 0.00 in0.0 mm 0.00 in0.0 mm
07:47 PM 85.2°F29.6°C 73.7°F23.2°C 68% 1.3 mph WSW2.1 kmh WSW 4.0 mph6.4 kmh 29.92 in1013.2 mb 0.00 in0.0 mm 0.00 in0.0 mm 0.00 in0.0 mm
07:52 PM 84.9°F29.4°C 73.8°F23.2°C 69% 1.3 mph WSW2.1 kmh WSW 3.0 mph4.8 kmh 29.92 in1013.2 mb 0.00 in0.0 mm 0.00 in0.0 mm 0.00 in0.0 mm
07:57 PM 84.6°F29.2°C 74.0°F23.3°C 70% 1.0 mph WSW1.6 kmh WSW 3.0 mph4.8 kmh 29.92 in1013.2 mb 0.00 in0.0 mm 0.00 in0.0 mm 0.00 in0.0 mm
08:02 PM 84.4°F29.1°C 73.8°F23.2°C 70% 1.9 mph WSW3.1 kmh WSW 3.0 mph4.8 kmh 29.92 in1013.2 mb 0.00 in0.0 mm 0.00 in0.0 mm 0.00 in0.0 mm
08:07 PM 84.2°F29.0°C 73.6°F23.1°C 70% 1.2 mph W1.9 kmh W 3.0 mph4.8 kmh 29.92 in1013.2 mb 0.00 in0.0 mm 0.00 in0.0 mm 0.00 in0.0 mm
08:12 PM 84.2°F29.0°C 73.6°F23.1°C 70% 1.9 mph W3.1 kmh W 4.0 mph6.4 kmh 29.92 in1013.2 mb 0.00 in0.0 mm 0.00 in0.0 mm 0.00 in0.0 mm
08:17 PM 84.2°F29.0°C 73.6°F23.1°C 70% 2.2 mph W3.5 kmh W 7.0 mph11.3 kmh 29.92 in1013.2 mb 0.00 in0.0 mm 0.00 in0.0 mm 0.00 in0.0 mm
08:22 PM 84.1°F28.9°C 73.5°F23.1°C 70% 1.4 mph WSW2.3 kmh WSW 7.0 mph11.3 kmh 29.92 in1013.2 mb 0.00 in0.0 mm 0.00 in0.0 mm 0.00 in0.0 mm
08:27 PM 84.0°F28.9°C 73.6°F23.1°C 71% 2.0 mph WSW3.2 kmh WSW 7.0 mph11.3 kmh 29.93 in1013.5 mb 0.00 in0.0 mm 0.00 in0.0 mm 0.00 in0.0 mm
08:32 PM 83.8°F28.8°C 74.0°F23.3°C 72% 1.8 mph W2.9 kmh W 7.0 mph11.3 kmh 29.93 in1013.5 mb 0.00 in0.0 mm 0.00 in0.0 mm 0.00 in0.0 mm
08:37 PM 83.5°F28.6°C 74.1°F23.4°C 73% 1.8 mph WSW2.9 kmh WSW 5.0 mph8.0 kmh 29.93 in1013.5 mb 0.00 in0.0 mm 0.00 in0.0 mm 0.00 in0.0 mm
08:42 PM 83.2°F28.4°C 73.9°F23.3°C 73% 1.7 mph WSW2.7 kmh WSW 5.0 mph8.0 kmh 29.93 in1013.5 mb 0.00 in0.0 mm 0.00 in0.0 mm 0.00 in0.0 mm
08:47 PM 82.9°F28.3°C 74.0°F23.3°C 74% 2.3 mph WSW3.7 kmh WSW 6.0 mph9.7 kmh 29.93 in1013.5 mb 0.00 in0.0 mm 0.00 in0.0 mm 0.00 in0.0 mm
08:52 PM 82.7°F28.2°C 74.0°F23.3°C 75% 1.9 mph W3.1 kmh W 6.0 mph9.7 kmh 29.94 in1013.9 mb 0.00 in0.0 mm 0.00 in0.0 mm 0.00 in0.0 mm
08:57 PM 82.5°F28.1°C 73.8°F23.2°C 75% 1.9 mph WSW3.1 kmh WSW 6.0 mph9.7 kmh 29.94 in1013.9 mb 0.00 in0.0 mm 0.00 in0.0 mm 0.00 in0.0 mm
09:02 PM 82.4°F28.0°C 74.2°F23.4°C 76% 1.4 mph W2.3 kmh W 6.0 mph9.7 kmh 29.95 in1014.2 mb 0.00 in0.0 mm 0.00 in0.0 mm 0.00 in0.0 mm
09:07 PM 82.5°F28.1°C 74.3°F23.5°C 76% 1.9 mph W3.1 kmh W 6.0 mph9.7 kmh 29.95 in1014.2 mb 0.00 in0.0 mm 0.00 in0.0 mm 0.00 in0.0 mm
09:12 PM 82.5°F28.1°C 74.3°F23.5°C 76% 1.8 mph WSW2.9 kmh WSW 5.0 mph8.0 kmh 29.95 in1014.2 mb 0.00 in0.0 mm 0.00 in0.0 mm 0.00 in0.0 mm
09:17 PM 82.6°F28.1°C 74.4°F23.6°C 76% 1.4 mph WNW2.3 kmh WNW 5.0 mph8.0 kmh 29.95 in1014.2 mb 0.00 in0.0 mm 0.00 in0.0 mm 0.00 in0.0 mm
09:22 PM 82.6°F28.1°C 74.4°F23.6°C 76% 1.4 mph W2.3 kmh W 6.0 mph9.7 kmh 29.96 in1014.6 mb 0.00 in0.0 mm 0.00 in0.0 mm 0.00 in0.0 mm
09:27 PM 82.6°F28.1°C 74.4°F23.6°C 76% 2.1 mph W3.4 kmh W 6.0 mph9.7 kmh 29.96 in1014.6 mb 0.00 in0.0 mm 0.00 in0.0 mm 0.00 in0.0 mm
09:32 PM 82.5°F28.1°C 74.3°F23.5°C 76% 2.2 mph W3.5 kmh W 6.0 mph9.7 kmh 29.96 in1014.6 mb 0.00 in0.0 mm 0.00 in0.0 mm 0.00 in0.0 mm
09:37 PM 82.5°F28.1°C 74.3°F23.5°C 76% 2.2 mph W3.5 kmh W 6.0 mph9.7 kmh 29.96 in1014.6 mb 0.00 in0.0 mm 0.00 in0.0 mm 0.00 in0.0 mm
09:42 PM 82.5°F28.1°C 74.3°F23.5°C 76% 2.2 mph W3.5 kmh W 7.0 mph11.3 kmh 29.97 in1014.9 mb 0.00 in0.0 mm 0.00 in0.0 mm 0.00 in0.0 mm
09:47 PM 82.5°F28.1°C 73.8°F23.2°C 75% 2.6 mph WNW4.2 kmh WNW 7.0 mph11.3 kmh 29.97 in1014.9 mb 0.00 in0.0 mm 0.00 in0.0 mm 0.00 in0.0 mm
09:52 PM 82.5°F28.1°C 73.8°F23.2°C 75% 1.8 mph W2.9 kmh W 7.0 mph11.3 kmh 29.97 in1014.9 mb 0.00 in0.0 mm 0.00 in0.0 mm 0.00 in0.0 mm
09:57 PM 82.6°F28.1°C 74.1°F23.4°C 75% 1.5 mph W2.4 kmh W 8.0 mph12.9 kmh 29.97 in1014.9 mb 0.00 in0.0 mm 0.00 in0.0 mm 0.00 in0.0 mm
10:02 PM 82.6°F28.1°C 74.1°F23.4°C 75% 3.1 mph WNW5.0 kmh WNW 8.0 mph12.9 kmh 29.97 in1014.9 mb 0.00 in0.0 mm 0.00 in0.0 mm 0.00 in0.0 mm
10:07 PM 82.6°F28.1°C 74.1°F23.4°C 75% 3.1 mph WNW5.0 kmh WNW 8.0 mph12.9 kmh 29.97 in1014.9 mb 0.00 in0.0 mm 0.00 in0.0 mm 0.00 in0.0 mm
10:12 PM 82.6°F28.1°C 74.1°F23.4°C 75% 2.9 mph NW4.7 kmh NW 7.0 mph11.3 kmh 29.97 in1014.9 mb 0.00 in0.0 mm 0.00 in0.0 mm 0.00 in0.0 mm
10:17 PM 82.7°F28.2°C 73.8°F23.2°C 74% 2.8 mph WNW4.5 kmh WNW 7.0 mph11.3 kmh 29.97 in1014.9 mb 0.00 in0.0 mm 0.00 in0.0 mm 0.00 in0.0 mm
10:22 PM 82.7°F28.2°C 74.2°F23.4°C 75% 2.3 mph NW3.7 kmh NW 7.0 mph11.3 kmh 29.97 in1014.9 mb 0.00 in0.0 mm 0.00 in0.0 mm 0.00 in0.0 mm
10:27 PM 82.8°F28.2°C 73.9°F23.3°C 74% 2.2 mph NW3.5 kmh NW 8.0 mph12.9 kmh 29.97 in1014.9 mb 0.00 in0.0 mm 0.00 in0.0 mm 0.00 in0.0 mm
10:32 PM 82.8°F28.2°C 74.3°F23.5°C 75% 3.0 mph WNW4.8 kmh WNW 8.0 mph12.9 kmh 29.97 in1014.9 mb 0.00 in0.0 mm 0.00 in0.0 mm 0.00 in0.0 mm
10:37 PM 82.8°F28.2°C 74.3°F23.5°C 75% 2.7 mph WNW4.3 kmh WNW 8.0 mph12.9 kmh 29.97 in1014.9 mb 0.00 in0.0 mm 0.00 in0.0 mm 0.00 in0.0 mm
10:42 PM 82.7°F28.2°C 74.2°F23.4°C 75% 3.1 mph W5.0 kmh W 8.0 mph12.9 kmh 29.96 in1014.6 mb 0.00 in0.0 mm 0.00 in0.0 mm 0.00 in0.0 mm
10:47 PM 82.6°F28.1°C 74.4°F23.6°C 76% 3.6 mph W5.8 kmh W 8.0 mph12.9 kmh 29.97 in1014.9 mb 0.00 in0.0 mm 0.00 in0.0 mm 0.00 in0.0 mm
10:52 PM 82.5°F28.1°C 74.3°F23.5°C 76% 2.0 mph WNW3.2 kmh WNW 7.0 mph11.3 kmh 29.96 in1014.6 mb 0.00 in0.0 mm 0.00 in0.0 mm 0.00 in0.0 mm
10:57 PM 82.4°F28.0°C 74.6°F23.7°C 77% 2.9 mph WNW4.7 kmh WNW 7.0 mph11.3 kmh 29.96 in1014.6 mb 0.00 in0.0 mm 0.00 in0.0 mm 0.00 in0.0 mm
11:02 PM 82.2°F27.9°C 74.3°F23.5°C 77% 2.6 mph NW4.2 kmh NW 7.0 mph11.3 kmh 29.96 in1014.6 mb 0.00 in0.0 mm 0.00 in0.0 mm 0.00 in0.0 mm
11:07 PM 82.1°F27.8°C 74.0°F23.3°C 76% 2.2 mph WNW3.5 kmh WNW 7.0 mph11.3 kmh 29.96 in1014.6 mb 0.00 in0.0 mm 0.00 in0.0 mm 0.00 in0.0 mm
11:12 PM 82.1°F27.8°C 74.0°F23.3°C 76% 2.4 mph WNW3.9 kmh WNW 7.0 mph11.3 kmh 29.96 in1014.6 mb 0.00 in0.0 mm 0.00 in0.0 mm 0.00 in0.0 mm
11:17 PM 81.9°F27.7°C 73.8°F23.2°C 76% 1.5 mph WNW2.4 kmh WNW 7.0 mph11.3 kmh 29.96 in1014.6 mb 0.00 in0.0 mm 0.00 in0.0 mm 0.00 in0.0 mm
11:22 PM 81.9°F27.7°C 73.8°F23.2°C 76% 1.6 mph W2.6 kmh W 6.0 mph9.7 kmh 29.96 in1014.6 mb 0.00 in0.0 mm 0.00 in0.0 mm 0.00 in0.0 mm
11:27 PM 81.8°F27.7°C 73.7°F23.2°C 76% 2.6 mph WNW4.2 kmh WNW 6.0 mph9.7 kmh 29.96 in1014.6 mb 0.00 in0.0 mm 0.00 in0.0 mm 0.00 in0.0 mm
11:31 PM 81.8°F27.7°C 73.7°F23.2°C 76% 3.5 mph WNW5.6 kmh WNW 6.0 mph9.7 kmh 29.96 in1014.6 mb 0.00 in0.0 mm 0.00 in0.0 mm 0.00 in0.0 mm
11:36 PM 81.7°F27.6°C 73.6°F23.1°C 76% 2.5 mph WNW4.0 kmh WNW 6.0 mph9.7 kmh 29.96 in1014.6 mb 0.00 in0.0 mm 0.00 in0.0 mm 0.00 in0.0 mm
11:41 PM 81.6°F27.6°C 73.5°F23.1°C 76% 2.5 mph W4.0 kmh W 6.0 mph9.7 kmh 29.96 in1014.6 mb 0.00 in0.0 mm 0.00 in0.0 mm 0.00 in0.0 mm
11:46 PM 81.5°F27.5°C 73.6°F23.1°C 77% 2.7 mph W4.3 kmh W 8.0 mph12.9 kmh 29.96 in1014.6 mb 0.00 in0.0 mm 0.00 in0.0 mm 0.00 in0.0 mm
11:51 PM 81.4°F27.4°C 73.7°F23.2°C 77% 2.3 mph WNW3.7 kmh WNW 8.0 mph12.9 kmh 29.96 in1014.6 mb 0.00 in0.0 mm 0.00 in0.0 mm 0.00 in0.0 mm
11:56 PM 81.2°F27.3°C 73.5°F23.1°C 77% 2.6 mph W4.2 kmh W 8.0 mph12.9 kmh 29.96 in1014.6 mb 0.00 in0.0 mm 0.00 in0.0 mm 0.00 in0.0 mm